sensor_id;sensor_type;location;lat;lon;timestamp;temperature;humidity
71254;HTU21D;59019;47.638;18.966;2023-04-03T00:00:55;5.95;80.62
71254;HTU21D;59019;47.638;18.966;2023-04-03T00:03:22;5.96;80.52
71254;HTU21D;59019;47.638;18.966;2023-04-03T00:05:48;5.81;80.62
71254;HTU21D;59019;47.638;18.966;2023-04-03T00:08:14;5.64;81.85
71254;HTU21D;59019;47.638;18.966;2023-04-03T00:10:41;5.57;81.97
71254;HTU21D;59019;47.638;18.966;2023-04-03T00:13:07;5.54;82.08
71254;HTU21D;59019;47.638;18.966;2023-04-03T00:15:34;5.45;82.06
71254;HTU21D;59019;47.638;18.966;2023-04-03T00:18:00;5.38;82.75
71254;HTU21D;59019;47.638;18.966;2023-04-03T00:20:26;5.38;82.46
71254;HTU21D;59019;47.638;18.966;2023-04-03T00:22:52;5.30;82.66
71254;HTU21D;59019;47.638;18.966;2023-04-03T00:25:18;5.31;82.34
71254;HTU21D;59019;47.638;18.966;2023-04-03T00:27:44;5.32;81.91
71254;HTU21D;59019;47.638;18.966;2023-04-03T00:30:15;5.46;81.59
71254;HTU21D;59019;47.638;18.966;2023-04-03T00:32:41;5.43;81.78
71254;HTU21D;59019;47.638;18.966;2023-04-03T00:35:07;5.37;82.45
71254;HTU21D;59019;47.638;18.966;2023-04-03T00:37:33;5.35;81.97
71254;HTU21D;59019;47.638;18.966;2023-04-03T00:39:59;5.20;82.79
71254;HTU21D;59019;47.638;18.966;2023-04-03T00:42:25;5.21;83.04
71254;HTU21D;59019;47.638;18.966;2023-04-03T00:47:23;5.25;83.08
71254;HTU21D;59019;47.638;18.966;2023-04-03T00:49:49;5.37;82.32
71254;HTU21D;59019;47.638;18.966;2023-04-03T00:52:17;5.33;82.64
71254;HTU21D;59019;47.638;18.966;2023-04-03T00:54:45;5.41;82.36
71254;HTU21D;59019;47.638;18.966;2023-04-03T00:57:12;5.32;82.55
71254;HTU21D;59019;47.638;18.966;2023-04-03T00:59:46;5.26;82.84
71254;HTU21D;59019;47.638;18.966;2023-04-03T01:02:13;5.21;83.84
71254;HTU21D;59019;47.638;18.966;2023-04-03T01:04:42;5.25;83.68
71254;HTU21D;59019;47.638;18.966;2023-04-03T01:07:11;5.22;82.98
71254;HTU21D;59019;47.638;18.966;2023-04-03T01:09:38;5.21;83.01
71254;HTU21D;59019;47.638;18.966;2023-04-03T01:14:49;4.87;83.42
71254;HTU21D;59019;47.638;18.966;2023-04-03T01:23:04;5.01;82.94
71254;HTU21D;59019;47.638;18.966;2023-04-03T01:28:05;5.06;82.00
71254;HTU21D;59019;47.638;18.966;2023-04-03T01:30:34;5.16;81.72
71254;HTU21D;59019;47.638;18.966;2023-04-03T01:33:01;5.09;81.45
71254;HTU21D;59019;47.638;18.966;2023-04-03T01:35:27;5.17;81.52
71254;HTU21D;59019;47.638;18.966;2023-04-03T01:37:53;5.23;81.01
71254;HTU21D;59019;47.638;18.966;2023-04-03T01:40:19;5.17;80.79
71254;HTU21D;59019;47.638;18.966;2023-04-03T01:42:45;5.17;81.14
71254;HTU21D;59019;47.638;18.966;2023-04-03T01:45:10;5.02;82.06
71254;HTU21D;59019;47.638;18.966;2023-04-03T01:47:36;4.98;81.91
71254;HTU21D;59019;47.638;18.966;2023-04-03T01:50:02;4.93;82.30
71254;HTU21D;59019;47.638;18.966;2023-04-03T01:52:28;5.02;82.33
71254;HTU21D;59019;47.638;18.966;2023-04-03T01:54:53;4.98;81.43
71254;HTU21D;59019;47.638;18.966;2023-04-03T01:57:19;5.01;80.88
71254;HTU21D;59019;47.638;18.966;2023-04-03T01:59:44;5.00;80.60
71254;HTU21D;59019;47.638;18.966;2023-04-03T02:02:10;5.02;80.24
71254;HTU21D;59019;47.638;18.966;2023-04-03T02:04:37;5.00;81.28
71254;HTU21D;59019;47.638;18.966;2023-04-03T02:07:03;5.11;82.69
71254;HTU21D;59019;47.638;18.966;2023-04-03T02:09:29;5.09;84.63
71254;HTU21D;59019;47.638;18.966;2023-04-03T02:11:54;5.09;85.21
71254;HTU21D;59019;47.638;18.966;2023-04-03T02:14:20;5.22;86.01
71254;HTU21D;59019;47.638;18.966;2023-04-03T02:16:47;5.06;82.75
71254;HTU21D;59019;47.638;18.966;2023-04-03T02:19:12;4.88;82.07
71254;HTU21D;59019;47.638;18.966;2023-04-03T02:21:38;4.73;82.57
71254;HTU21D;59019;47.638;18.966;2023-04-03T02:24:04;4.86;81.78
71254;HTU21D;59019;47.638;18.966;2023-04-03T02:26:29;4.61;81.84
71254;HTU21D;59019;47.638;18.966;2023-04-03T02:28:55;4.64;81.94
71254;HTU21D;59019;47.638;18.966;2023-04-03T02:31:20;4.63;82.53
71254;HTU21D;59019;47.638;18.966;2023-04-03T02:33:46;4.74;82.03
71254;HTU21D;59019;47.638;18.966;2023-04-03T02:36:12;4.72;81.60
71254;HTU21D;59019;47.638;18.966;2023-04-03T02:38:37;4.75;81.89
71254;HTU21D;59019;47.638;18.966;2023-04-03T02:41:08;4.77;82.13
71254;HTU21D;59019;47.638;18.966;2023-04-03T02:43:34;4.51;81.62
71254;HTU21D;59019;47.638;18.966;2023-04-03T02:46:00;4.64;81.61
71254;HTU21D;59019;47.638;18.966;2023-04-03T02:48:26;4.56;81.49
71254;HTU21D;59019;47.638;18.966;2023-04-03T02:50:52;4.39;81.95
71254;HTU21D;59019;47.638;18.966;2023-04-03T02:53:18;4.30;82.05
71254;HTU21D;59019;47.638;18.966;2023-04-03T02:55:44;4.33;82.07
71254;HTU21D;59019;47.638;18.966;2023-04-03T02:58:10;4.39;81.79
71254;HTU21D;59019;47.638;18.966;2023-04-03T03:00:36;4.23;82.18
71254;HTU21D;59019;47.638;18.966;2023-04-03T03:03:01;4.34;82.83
71254;HTU21D;59019;47.638;18.966;2023-04-03T03:05:27;4.33;82.57
71254;HTU21D;59019;47.638;18.966;2023-04-03T03:07:53;4.47;82.32
71254;HTU21D;59019;47.638;18.966;2023-04-03T03:10:19;4.32;82.52
71254;HTU21D;59019;47.638;18.966;2023-04-03T03:12:45;4.27;82.78
71254;HTU21D;59019;47.638;18.966;2023-04-03T03:15:10;4.29;82.61
71254;HTU21D;59019;47.638;18.966;2023-04-03T03:17:36;4.30;82.69
71254;HTU21D;59019;47.638;18.966;2023-04-03T03:20:03;4.36;82.65
71254;HTU21D;59019;47.638;18.966;2023-04-03T03:22:29;4.13;82.47
71254;HTU21D;59019;47.638;18.966;2023-04-03T03:24:55;4.19;82.42
71254;HTU21D;59019;47.638;18.966;2023-04-03T03:27:20;4.23;82.23
71254;HTU21D;59019;47.638;18.966;2023-04-03T03:29:46;4.04;82.58
71254;HTU21D;59019;47.638;18.966;2023-04-03T03:32:12;3.64;83.25
71254;HTU21D;59019;47.638;18.966;2023-04-03T03:34:37;3.82;83.42
71254;HTU21D;59019;47.638;18.966;2023-04-03T03:37:03;3.78;83.35
71254;HTU21D;59019;47.638;18.966;2023-04-03T03:39:29;3.43;84.26
71254;HTU21D;59019;47.638;18.966;2023-04-03T03:41:54;3.29;84.97
71254;HTU21D;59019;47.638;18.966;2023-04-03T03:44:20;3.34;85.00
71254;HTU21D;59019;47.638;18.966;2023-04-03T03:46:46;3.24;85.20
71254;HTU21D;59019;47.638;18.966;2023-04-03T03:49:11;3.40;84.97
71254;HTU21D;59019;47.638;18.966;2023-04-03T03:51:38;3.32;85.22
71254;HTU21D;59019;47.638;18.966;2023-04-03T03:54:04;3.15;84.93
71254;HTU21D;59019;47.638;18.966;2023-04-03T03:56:30;3.08;85.47
71254;HTU21D;59019;47.638;18.966;2023-04-03T03:58:56;3.18;85.25
71254;HTU21D;59019;47.638;18.966;2023-04-03T04:01:22;2.94;85.62
71254;HTU21D;59019;47.638;18.966;2023-04-03T04:03:50;2.81;86.28
71254;HTU21D;59019;47.638;18.966;2023-04-03T04:06:15;2.76;86.45
71254;HTU21D;59019;47.638;18.966;2023-04-03T04:08:41;2.81;88.56
71254;HTU21D;59019;47.638;18.966;2023-04-03T04:11:07;2.73;88.22
71254;HTU21D;59019;47.638;18.966;2023-04-03T04:13:33;2.74;87.14
71254;HTU21D;59019;47.638;18.966;2023-04-03T04:15:59;2.59;86.53
71254;HTU21D;59019;47.638;18.966;2023-04-03T04:18:25;2.71;86.73
71254;HTU21D;59019;47.638;18.966;2023-04-03T04:20:50;2.67;86.55
71254;HTU21D;59019;47.638;18.966;2023-04-03T04:23:17;2.60;86.45
71254;HTU21D;59019;47.638;18.966;2023-04-03T04:25:46;2.53;86.86
71254;HTU21D;59019;47.638;18.966;2023-04-03T04:28:12;2.53;86.77
71254;HTU21D;59019;47.638;18.966;2023-04-03T04:30:38;2.50;86.84
71254;HTU21D;59019;47.638;18.966;2023-04-03T04:33:03;2.31;87.12
71254;HTU21D;59019;47.638;18.966;2023-04-03T04:35:29;2.31;87.68
71254;HTU21D;59019;47.638;18.966;2023-04-03T04:37:54;2.25;87.70
71254;HTU21D;59019;47.638;18.966;2023-04-03T04:40:20;2.24;88.16
71254;HTU21D;59019;47.638;18.966;2023-04-03T04:42:46;2.31;87.96
71254;HTU21D;59019;47.638;18.966;2023-04-03T04:45:11;2.32;87.59
71254;HTU21D;59019;47.638;18.966;2023-04-03T04:47:37;2.32;87.70
71254;HTU21D;59019;47.638;18.966;2023-04-03T04:50:03;2.25;87.83
71254;HTU21D;59019;47.638;18.966;2023-04-03T04:52:28;2.28;87.93
71254;HTU21D;59019;47.638;18.966;2023-04-03T04:54:54;2.24;87.85
71254;HTU21D;59019;47.638;18.966;2023-04-03T04:57:19;2.25;88.06
71254;HTU21D;59019;47.638;18.966;2023-04-03T04:59:45;2.28;88.16
71254;HTU21D;59019;47.638;18.966;2023-04-03T05:02:11;2.43;87.83
71254;HTU21D;59019;47.638;18.966;2023-04-03T05:04:36;2.34;87.64
71254;HTU21D;59019;47.638;18.966;2023-04-03T05:07:02;2.39;87.77
71254;HTU21D;59019;47.638;18.966;2023-04-03T05:09:27;2.20;88.71
71254;HTU21D;59019;47.638;18.966;2023-04-03T05:11:53;2.16;89.44
71254;HTU21D;59019;47.638;18.966;2023-04-03T05:14:19;2.11;89.60
71254;HTU21D;59019;47.638;18.966;2023-04-03T05:16:44;2.11;89.57
71254;HTU21D;59019;47.638;18.966;2023-04-03T05:19:10;2.15;90.99
71254;HTU21D;59019;47.638;18.966;2023-04-03T05:21:38;2.35;92.27
71254;HTU21D;59019;47.638;18.966;2023-04-03T05:24:04;2.46;92.85
71254;HTU21D;59019;47.638;18.966;2023-04-03T05:26:31;2.55;91.89
71254;HTU21D;59019;47.638;18.966;2023-04-03T05:28:56;2.69;92.44
71254;HTU21D;59019;47.638;18.966;2023-04-03T05:31:22;2.74;91.34
71254;HTU21D;59019;47.638;18.966;2023-04-03T05:33:47;2.91;90.89
71254;HTU21D;59019;47.638;18.966;2023-04-03T05:36:13;3.01;90.19
71254;HTU21D;59019;47.638;18.966;2023-04-03T05:38:39;3.15;88.58
71254;HTU21D;59019;47.638;18.966;2023-04-03T05:41:04;3.31;87.79
71254;HTU21D;59019;47.638;18.966;2023-04-03T05:43:31;3.50;87.36
71254;HTU21D;59019;47.638;18.966;2023-04-03T05:45:56;3.62;86.18
71254;HTU21D;59019;47.638;18.966;2023-04-03T05:48:22;3.82;83.49
71254;HTU21D;59019;47.638;18.966;2023-04-03T05:50:48;3.98;82.76
71254;HTU21D;59019;47.638;18.966;2023-04-03T05:53:20;4.23;81.90
71254;HTU21D;59019;47.638;18.966;2023-04-03T05:55:46;4.48;80.45
71254;HTU21D;59019;47.638;18.966;2023-04-03T05:58:12;4.74;80.88
71254;HTU21D;59019;47.638;18.966;2023-04-03T06:00:38;5.00;79.02
71254;HTU21D;59019;47.638;18.966;2023-04-03T06:03:04;5.20;77.92
71254;HTU21D;59019;47.638;18.966;2023-04-03T06:05:30;5.46;77.43
71254;HTU21D;59019;47.638;18.966;2023-04-03T06:07:55;5.82;76.85
71254;HTU21D;59019;47.638;18.966;2023-04-03T06:10:22;6.16;75.05
71254;HTU21D;59019;47.638;18.966;2023-04-03T06:12:48;6.51;74.78
71254;HTU21D;59019;47.638;18.966;2023-04-03T06:15:13;6.90;72.67
71254;HTU21D;59019;47.638;18.966;2023-04-03T06:17:39;7.27;72.09
71254;HTU21D;59019;47.638;18.966;2023-04-03T06:20:05;7.63;71.00
71254;HTU21D;59019;47.638;18.966;2023-04-03T06:22:31;7.60;69.39
71254;HTU21D;59019;47.638;18.966;2023-04-03T06:24:57;7.91;69.65
71254;HTU21D;59019;47.638;18.966;2023-04-03T06:27:23;7.98;68.50
71254;HTU21D;59019;47.638;18.966;2023-04-03T06:29:49;7.94;68.81
71254;HTU21D;59019;47.638;18.966;2023-04-03T06:32:15;7.49;69.42
71254;HTU21D;59019;47.638;18.966;2023-04-03T06:34:41;7.64;69.60
71254;HTU21D;59019;47.638;18.966;2023-04-03T06:37:20;7.59;69.38
71254;HTU21D;59019;47.638;18.966;2023-04-03T06:39:46;7.76;68.92
71254;HTU21D;59019;47.638;18.966;2023-04-03T06:42:12;7.53;69.04
71254;HTU21D;59019;47.638;18.966;2023-04-03T06:44:38;7.12;71.00
71254;HTU21D;59019;47.638;18.966;2023-04-03T06:47:03;6.94;71.52
71254;HTU21D;59019;47.638;18.966;2023-04-03T06:49:29;6.76;72.45
71254;HTU21D;59019;47.638;18.966;2023-04-03T06:51:56;7.15;72.88
71254;HTU21D;59019;47.638;18.966;2023-04-03T06:54:22;7.43;73.67
71254;HTU21D;59019;47.638;18.966;2023-04-03T06:56:48;7.65;71.10
71254;HTU21D;59019;47.638;18.966;2023-04-03T06:59:14;7.88;70.15
71254;HTU21D;59019;47.638;18.966;2023-04-03T07:01:40;7.94;71.45
71254;HTU21D;59019;47.638;18.966;2023-04-03T07:04:06;8.07;69.52
71254;HTU21D;59019;47.638;18.966;2023-04-03T07:06:31;8.36;69.38
71254;HTU21D;59019;47.638;18.966;2023-04-03T07:08:59;8.46;68.25
71254;HTU21D;59019;47.638;18.966;2023-04-03T07:11:24;8.60;68.07
71254;HTU21D;59019;47.638;18.966;2023-04-03T07:13:53;9.18;66.01
71254;HTU21D;59019;47.638;18.966;2023-04-03T07:16:19;9.09;64.82
71254;HTU21D;59019;47.638;18.966;2023-04-03T07:18:45;9.33;64.86
71254;HTU21D;59019;47.638;18.966;2023-04-03T07:21:11;9.48;64.76
71254;HTU21D;59019;47.638;18.966;2023-04-03T07:23:37;9.61;64.84
71254;HTU21D;59019;47.638;18.966;2023-04-03T07:26:03;9.71;63.32
71254;HTU21D;59019;47.638;18.966;2023-04-03T07:28:29;9.52;63.14
71254;HTU21D;59019;47.638;18.966;2023-04-03T07:31:03;9.76;63.11
71254;HTU21D;59019;47.638;18.966;2023-04-03T07:33:30;9.79;62.95
71254;HTU21D;59019;47.638;18.966;2023-04-03T07:35:56;10.13;61.76
71254;HTU21D;59019;47.638;18.966;2023-04-03T07:38:22;10.12;62.22
71254;HTU21D;59019;47.638;18.966;2023-04-03T07:40:49;10.71;61.13
71254;HTU21D;59019;47.638;18.966;2023-04-03T07:43:17;10.98;59.83
71254;HTU21D;59019;47.638;18.966;2023-04-03T07:45:43;11.09;58.52
71254;HTU21D;59019;47.638;18.966;2023-04-03T07:48:09;11.10;57.76
71254;HTU21D;59019;47.638;18.966;2023-04-03T07:50:35;10.67;58.17
71254;HTU21D;59019;47.638;18.966;2023-04-03T07:53:02;10.70;58.95
71254;HTU21D;59019;47.638;18.966;2023-04-03T07:55:28;10.86;58.19
71254;HTU21D;59019;47.638;18.966;2023-04-03T07:57:56;11.01;58.45
71254;HTU21D;59019;47.638;18.966;2023-04-03T08:00:22;11.19;58.96
71254;HTU21D;59019;47.638;18.966;2023-04-03T08:02:48;11.08;58.17
71254;HTU21D;59019;47.638;18.966;2023-04-03T08:05:19;11.26;58.96
71254;HTU21D;59019;47.638;18.966;2023-04-03T08:07:45;11.46;56.70
71254;HTU21D;59019;47.638;18.966;2023-04-03T08:10:12;11.12;56.03
71254;HTU21D;59019;47.638;18.966;2023-04-03T08:12:37;11.48;56.92
71254;HTU21D;59019;47.638;18.966;2023-04-03T08:15:04;11.48;57.32
71254;HTU21D;59019;47.638;18.966;2023-04-03T08:17:29;11.58;56.20
71254;HTU21D;59019;47.638;18.966;2023-04-03T08:19:55;11.62;55.87
71254;HTU21D;59019;47.638;18.966;2023-04-03T08:22:22;11.49;55.71
71254;HTU21D;59019;47.638;18.966;2023-04-03T08:24:47;11.42;55.60
71254;HTU21D;59019;47.638;18.966;2023-04-03T08:27:13;11.57;56.10
71254;HTU21D;59019;47.638;18.966;2023-04-03T08:29:38;10.89;57.30
71254;HTU21D;59019;47.638;18.966;2023-04-03T08:32:05;10.49;57.51
71254;HTU21D;59019;47.638;18.966;2023-04-03T08:34:31;10.69;58.38
71254;HTU21D;59019;47.638;18.966;2023-04-03T08:37:03;11.19;58.61
71254;HTU21D;59019;47.638;18.966;2023-04-03T08:39:28;11.99;58.45
71254;HTU21D;59019;47.638;18.966;2023-04-03T08:41:58;12.92;57.15
71254;HTU21D;59019;47.638;18.966;2023-04-03T08:44:46;13.85;52.89
71254;HTU21D;59019;47.638;18.966;2023-04-03T08:47:20;13.98;51.35
71254;HTU21D;59019;47.638;18.966;2023-04-03T08:50:07;14.84;51.45
71254;HTU21D;59019;47.638;18.966;2023-04-03T08:52:43;15.58;48.97
71254;HTU21D;59019;47.638;18.966;2023-04-03T08:55:27;15.74;49.56
71254;HTU21D;59019;47.638;18.966;2023-04-03T09:00:28;15.01;47.34
71254;HTU21D;59019;47.638;18.966;2023-04-03T09:02:56;13.85;48.69
71254;HTU21D;59019;47.638;18.966;2023-04-03T09:05:32;14.17;49.15
71254;HTU21D;59019;47.638;18.966;2023-04-03T09:10:40;13.99;50.55
71254;HTU21D;59019;47.638;18.966;2023-04-03T09:15:44;14.33;48.15
71254;HTU21D;59019;47.638;18.966;2023-04-03T09:18:20;14.05;47.40
71254;HTU21D;59019;47.638;18.966;2023-04-03T09:23:47;13.45;49.23
71254;HTU21D;59019;47.638;18.966;2023-04-03T09:26:17;13.15;49.49
71254;HTU21D;59019;47.638;18.966;2023-04-03T09:28:43;12.37;50.68
71254;HTU21D;59019;47.638;18.966;2023-04-03T09:33:46;12.67;49.31
71254;HTU21D;59019;47.638;18.966;2023-04-03T09:36:12;12.58;50.00
71254;HTU21D;59019;47.638;18.966;2023-04-03T09:38:37;12.57;50.31
71254;HTU21D;59019;47.638;18.966;2023-04-03T09:41:13;12.44;49.89
71254;HTU21D;59019;47.638;18.966;2023-04-03T09:43:52;12.26;50.64
71254;HTU21D;59019;47.638;18.966;2023-04-03T09:46:23;12.21;49.75
71254;HTU21D;59019;47.638;18.966;2023-04-03T09:48:51;11.96;52.81
71254;HTU21D;59019;47.638;18.966;2023-04-03T09:51:17;11.39;54.91
71254;HTU21D;59019;47.638;18.966;2023-04-03T09:53:44;11.57;55.33
71254;HTU21D;59019;47.638;18.966;2023-04-03T09:58:44;11.91;50.84
71254;HTU21D;59019;47.638;18.966;2023-04-03T10:01:56;11.75;53.23
71254;HTU21D;59019;47.638;18.966;2023-04-03T10:04:22;11.66;51.24
71254;HTU21D;59019;47.638;18.966;2023-04-03T10:06:56;11.49;52.20
71254;HTU21D;59019;47.638;18.966;2023-04-03T10:09:22;11.48;52.36
71254;HTU21D;59019;47.638;18.966;2023-04-03T10:12:08;11.54;52.58
71254;HTU21D;59019;47.638;18.966;2023-04-03T10:14:36;11.41;52.82
71254;HTU21D;59019;47.638;18.966;2023-04-03T10:17:18;11.28;52.19
71254;HTU21D;59019;47.638;18.966;2023-04-03T10:25:00;11.34;51.68
71254;HTU21D;59019;47.638;18.966;2023-04-03T10:33:20;11.59;52.00
71254;HTU21D;59019;47.638;18.966;2023-04-03T10:38:55;11.63;50.84
71254;HTU21D;59019;47.638;18.966;2023-04-03T10:57:39;11.71;51.22
71254;HTU21D;59019;47.638;18.966;2023-04-03T11:00:14;11.87;50.46
71254;HTU21D;59019;47.638;18.966;2023-04-03T11:02:52;11.96;50.13
71254;HTU21D;59019;47.638;18.966;2023-04-03T11:05:45;11.91;51.45
71254;HTU21D;59019;47.638;18.966;2023-04-03T11:08:37;11.68;49.73
71254;HTU21D;59019;47.638;18.966;2023-04-03T11:11:29;11.58;50.16
71254;HTU21D;59019;47.638;18.966;2023-04-03T11:14:05;11.54;51.55
71254;HTU21D;59019;47.638;18.966;2023-04-03T11:16:39;11.55;51.93
71254;HTU21D;59019;47.638;18.966;2023-04-03T11:19:20;11.59;51.46
71254;HTU21D;59019;47.638;18.966;2023-04-03T11:22:00;11.31;52.24
71254;HTU21D;59019;47.638;18.966;2023-04-03T11:24:29;11.02;52.17
71254;HTU21D;59019;47.638;18.966;2023-04-03T11:26:57;10.99;52.56
71254;HTU21D;59019;47.638;18.966;2023-04-03T11:29:29;11.08;53.49
71254;HTU21D;59019;47.638;18.966;2023-04-03T11:34:45;11.36;53.96
71254;HTU21D;59019;47.638;18.966;2023-04-03T11:39:56;11.49;51.87
71254;HTU21D;59019;47.638;18.966;2023-04-03T11:42:40;11.57;51.11
71254;HTU21D;59019;47.638;18.966;2023-04-03T11:48:05;11.28;52.26
71254;HTU21D;59019;47.638;18.966;2023-04-03T11:58:24;11.46;52.24
71254;HTU21D;59019;47.638;18.966;2023-04-03T12:00:54;11.39;51.90
71254;HTU21D;59019;47.638;18.966;2023-04-03T12:16:54;11.94;51.43
71254;HTU21D;59019;47.638;18.966;2023-04-03T12:32:36;12.23;49.79
71254;HTU21D;59019;47.638;18.966;2023-04-03T12:46:12;12.12;50.20
71254;HTU21D;59019;47.638;18.966;2023-04-03T12:48:54;12.14;51.11
71254;HTU21D;59019;47.638;18.966;2023-04-03T12:51:35;12.11;50.36
71254;HTU21D;59019;47.638;18.966;2023-04-03T12:54:12;12.00;50.50
71254;HTU21D;59019;47.638;18.966;2023-04-03T12:56:38;11.92;50.09
71254;HTU21D;59019;47.638;18.966;2023-04-03T12:59:25;11.77;50.31
71254;HTU21D;59019;47.638;18.966;2023-04-03T13:02:01;11.89;50.04
71254;HTU21D;59019;47.638;18.966;2023-04-03T13:04:28;11.84;50.83
71254;HTU21D;59019;47.638;18.966;2023-04-03T13:06:54;11.81;49.81
71254;HTU21D;59019;47.638;18.966;2023-04-03T13:12:13;11.92;50.76
71254;HTU21D;59019;47.638;18.966;2023-04-03T13:14:39;11.87;52.17
71254;HTU21D;59019;47.638;18.966;2023-04-03T13:17:12;11.90;51.45
71254;HTU21D;59019;47.638;18.966;2023-04-03T13:19:41;11.89;51.14
71254;HTU21D;59019;47.638;18.966;2023-04-03T13:22:36;11.88;51.13
71254;HTU21D;59019;47.638;18.966;2023-04-03T13:25:09;11.81;51.60
71254;HTU21D;59019;47.638;18.966;2023-04-03T13:27:36;11.72;52.30
71254;HTU21D;59019;47.638;18.966;2023-04-03T13:30:06;11.67;53.33
71254;HTU21D;59019;47.638;18.966;2023-04-03T13:32:32;11.47;52.51
71254;HTU21D;59019;47.638;18.966;2023-04-03T13:34:59;11.38;52.14
71254;HTU21D;59019;47.638;18.966;2023-04-03T13:42:36;11.58;52.69
71254;HTU21D;59019;47.638;18.966;2023-04-03T13:45:10;11.68;51.91
71254;HTU21D;59019;47.638;18.966;2023-04-03T13:47:43;11.28;51.63
71254;HTU21D;59019;47.638;18.966;2023-04-03T13:53:03;11.40;52.65
71254;HTU21D;59019;47.638;18.966;2023-04-03T13:55:36;11.17;52.84
71254;HTU21D;59019;47.638;18.966;2023-04-03T13:58:16;11.29;52.57
71254;HTU21D;59019;47.638;18.966;2023-04-03T14:00:52;10.99;52.56
71254;HTU21D;59019;47.638;18.966;2023-04-03T14:04:01;10.99;54.10
71254;HTU21D;59019;47.638;18.966;2023-04-03T14:06:10;11.03;55.63
71254;HTU21D;59019;47.638;18.966;2023-04-03T14:08:36;10.98;55.45
71254;HTU21D;59019;47.638;18.966;2023-04-03T14:11:02;11.01;56.42
71254;HTU21D;59019;47.638;18.966;2023-04-03T14:13:30;11.03;56.07
71254;HTU21D;59019;47.638;18.966;2023-04-03T14:15:56;11.04;54.01
71254;HTU21D;59019;47.638;18.966;2023-04-03T14:18:22;11.03;52.83
71254;HTU21D;59019;47.638;18.966;2023-04-03T14:20:48;11.00;53.70
71254;HTU21D;59019;47.638;18.966;2023-04-03T14:23:14;10.89;53.46
71254;HTU21D;59019;47.638;18.966;2023-04-03T14:25:40;10.82;54.13
71254;HTU21D;59019;47.638;18.966;2023-04-03T14:28:20;10.86;54.35
71254;HTU21D;59019;47.638;18.966;2023-04-03T14:30:48;10.94;53.65
71254;HTU21D;59019;47.638;18.966;2023-04-03T14:33:17;11.01;52.74
71254;HTU21D;59019;47.638;18.966;2023-04-03T14:35:43;11.07;52.11
71254;HTU21D;59019;47.638;18.966;2023-04-03T14:38:36;10.89;51.88
71254;HTU21D;59019;47.638;18.966;2023-04-03T14:41:02;10.34;53.76
71254;HTU21D;59019;47.638;18.966;2023-04-03T14:43:28;10.45;55.21
71254;HTU21D;59019;47.638;18.966;2023-04-03T14:45:53;10.33;55.33
71254;HTU21D;59019;47.638;18.966;2023-04-03T14:48:25;10.58;55.26
71254;HTU21D;59019;47.638;18.966;2023-04-03T14:50:52;10.63;55.77
71254;HTU21D;59019;47.638;18.966;2023-04-03T14:53:19;10.70;54.20
71254;HTU21D;59019;47.638;18.966;2023-04-03T14:55:48;10.71;53.26
71254;HTU21D;59019;47.638;18.966;2023-04-03T14:58:17;10.71;53.46
71254;HTU21D;59019;47.638;18.966;2023-04-03T15:00:43;10.62;53.95
71254;HTU21D;59019;47.638;18.966;2023-04-03T15:03:18;10.46;54.71
71254;HTU21D;59019;47.638;18.966;2023-04-03T15:05:44;10.37;54.66
71254;HTU21D;59019;47.638;18.966;2023-04-03T15:08:25;10.26;54.90
71254;HTU21D;59019;47.638;18.966;2023-04-03T15:10:51;9.82;55.30
71254;HTU21D;59019;47.638;18.966;2023-04-03T15:13:22;9.75;56.10
71254;HTU21D;59019;47.638;18.966;2023-04-03T15:15:48;9.81;55.29
71254;HTU21D;59019;47.638;18.966;2023-04-03T15:18:18;9.60;55.71
71254;HTU21D;59019;47.638;18.966;2023-04-03T15:20:44;9.51;55.68
71254;HTU21D;59019;47.638;18.966;2023-04-03T15:23:12;9.38;56.05
71254;HTU21D;59019;47.638;18.966;2023-04-03T15:25:38;9.22;56.61
71254;HTU21D;59019;47.638;18.966;2023-04-03T15:28:05;9.18;56.65
71254;HTU21D;59019;47.638;18.966;2023-04-03T15:30:31;9.30;57.03
71254;HTU21D;59019;47.638;18.966;2023-04-03T15:32:56;9.33;57.10
71254;HTU21D;59019;47.638;18.966;2023-04-03T15:35:22;9.37;57.21
71254;HTU21D;59019;47.638;18.966;2023-04-03T15:37:48;9.36;57.84
71254;HTU21D;59019;47.638;18.966;2023-04-03T15:40:13;9.37;58.45
71254;HTU21D;59019;47.638;18.966;2023-04-03T15:42:40;9.36;58.78
71254;HTU21D;59019;47.638;18.966;2023-04-03T15:45:06;9.31;56.76
71254;HTU21D;59019;47.638;18.966;2023-04-03T15:47:32;9.53;68.68
71254;HTU21D;59019;47.638;18.966;2023-04-03T15:49:58;9.77;68.50
71254;HTU21D;59019;47.638;18.966;2023-04-03T15:52:23;9.96;67.96
71254;HTU21D;59019;47.638;18.966;2023-04-03T15:54:49;10.18;68.58
71254;HTU21D;59019;47.638;18.966;2023-04-03T15:57:14;9.82;61.64
71254;HTU21D;59019;47.638;18.966;2023-04-03T15:59:40;9.86;58.25
71254;HTU21D;59019;47.638;18.966;2023-04-03T16:02:07;9.82;57.96
71254;HTU21D;59019;47.638;18.966;2023-04-03T16:04:38;9.69;57.61
71254;HTU21D;59019;47.638;18.966;2023-04-03T16:07:04;8.96;55.78
71254;HTU21D;59019;47.638;18.966;2023-04-03T16:09:32;8.71;55.73
71254;HTU21D;59019;47.638;18.966;2023-04-03T16:11:58;8.60;56.45
71254;HTU21D;59019;47.638;18.966;2023-04-03T16:14:23;8.42;56.42
71254;HTU21D;59019;47.638;18.966;2023-04-03T16:16:49;8.22;56.45
71254;HTU21D;59019;47.638;18.966;2023-04-03T16:19:15;8.19;57.00
71254;HTU21D;59019;47.638;18.966;2023-04-03T16:21:40;8.22;56.74
71254;HTU21D;59019;47.638;18.966;2023-04-03T16:24:06;8.17;56.42
71254;HTU21D;59019;47.638;18.966;2023-04-03T16:26:31;8.11;57.14
71254;HTU21D;59019;47.638;18.966;2023-04-03T16:28:57;8.23;56.92
71254;HTU21D;59019;47.638;18.966;2023-04-03T16:31:24;8.12;57.29
71254;HTU21D;59019;47.638;18.966;2023-04-03T16:33:52;8.13;57.08
71254;HTU21D;59019;47.638;18.966;2023-04-03T16:36:18;8.13;56.93
71254;HTU21D;59019;47.638;18.966;2023-04-03T16:38:44;8.13;57.16
71254;HTU21D;59019;47.638;18.966;2023-04-03T16:41:09;8.05;56.57
71254;HTU21D;59019;47.638;18.966;2023-04-03T16:43:35;7.93;55.92
71254;HTU21D;59019;47.638;18.966;2023-04-03T16:46:01;7.87;55.83
71254;HTU21D;59019;47.638;18.966;2023-04-03T16:48:28;7.82;56.39
71254;HTU21D;59019;47.638;18.966;2023-04-03T16:50:53;7.42;56.81
71254;HTU21D;59019;47.638;18.966;2023-04-03T16:53:20;7.55;56.43
71254;HTU21D;59019;47.638;18.966;2023-04-03T16:55:46;7.62;56.38
71254;HTU21D;59019;47.638;18.966;2023-04-03T16:58:11;7.37;57.28
71254;HTU21D;59019;47.638;18.966;2023-04-03T17:00:37;7.47;57.16
71254;HTU21D;59019;47.638;18.966;2023-04-03T17:03:03;7.49;57.42
71254;HTU21D;59019;47.638;18.966;2023-04-03T17:05:29;7.40;57.75
71254;HTU21D;59019;47.638;18.966;2023-04-03T17:07:54;7.41;57.26
71254;HTU21D;59019;47.638;18.966;2023-04-03T17:10:20;7.32;57.62
71254;HTU21D;59019;47.638;18.966;2023-04-03T17:12:45;7.33;57.32
71254;HTU21D;59019;47.638;18.966;2023-04-03T17:15:11;7.35;58.08
71254;HTU21D;59019;47.638;18.966;2023-04-03T17:17:36;7.47;58.16
71254;HTU21D;59019;47.638;18.966;2023-04-03T17:20:03;7.58;57.67